sensor_id;sensor_type;location;lat;lon;timestamp;temperature;humidity
19330;DHT22;9799;48.214;16.388;2023-09-30T00:02:33;18.40;99.90
19330;DHT22;9799;48.214;16.388;2023-09-30T00:05:54;18.40;99.90
19330;DHT22;9799;48.214;16.388;2023-09-30T00:09:15;18.50;99.90
19330;DHT22;9799;48.214;16.388;2023-09-30T00:12:38;18.60;99.90
19330;DHT22;9799;48.214;16.388;2023-09-30T00:15:59;18.80;99.90
19330;DHT22;9799;48.214;16.388;2023-09-30T00:19:21;18.90;99.90
19330;DHT22;9799;48.214;16.388;2023-09-30T00:22:42;18.90;99.90
19330;DHT22;9799;48.214;16.388;2023-09-30T00:26:03;18.90;99.90
19330;DHT22;9799;48.214;16.388;2023-09-30T00:29:26;18.80;99.90
19330;DHT22;9799;48.214;16.388;2023-09-30T00:32:47;18.80;99.90
19330;DHT22;9799;48.214;16.388;2023-09-30T00:36:09;18.90;99.90
19330;DHT22;9799;48.214;16.388;2023-09-30T00:39:32;18.80;99.90
19330;DHT22;9799;48.214;16.388;2023-09-30T00:42:53;18.80;99.90
19330;DHT22;9799;48.214;16.388;2023-09-30T00:46:25;18.80;99.90
19330;DHT22;9799;48.214;16.388;2023-09-30T00:49:46;18.90;99.90
19330;DHT22;9799;48.214;16.388;2023-09-30T00:53:08;18.80;99.90
19330;DHT22;9799;48.214;16.388;2023-09-30T00:56:30;18.90;99.90
19330;DHT22;9799;48.214;16.388;2023-09-30T00:59:52;18.90;99.90
19330;DHT22;9799;48.214;16.388;2023-09-30T01:03:14;18.80;99.90
19330;DHT22;9799;48.214;16.388;2023-09-30T01:06:36;18.70;99.90
19330;DHT22;9799;48.214;16.388;2023-09-30T01:09:57;18.60;99.90
19330;DHT22;9799;48.214;16.388;2023-09-30T01:13:18;18.60;99.90
19330;DHT22;9799;48.214;16.388;2023-09-30T01:16:39;18.60;99.90
19330;DHT22;9799;48.214;16.388;2023-09-30T01:20:02;18.60;99.90
19330;DHT22;9799;48.214;16.388;2023-09-30T01:23:26;18.60;99.90
19330;DHT22;9799;48.214;16.388;2023-09-30T01:26:48;18.50;99.90
19330;DHT22;9799;48.214;16.388;2023-09-30T01:30:09;18.50;99.90
19330;DHT22;9799;48.214;16.388;2023-09-30T01:33:31;18.50;99.90
19330;DHT22;9799;48.214;16.388;2023-09-30T01:36:52;18.50;99.90
19330;DHT22;9799;48.214;16.388;2023-09-30T01:40:15;18.40;99.90
19330;DHT22;9799;48.214;16.388;2023-09-30T01:43:37;18.50;99.90
19330;DHT22;9799;48.214;16.388;2023-09-30T01:46:59;18.50;99.90
19330;DHT22;9799;48.214;16.388;2023-09-30T01:50:20;18.50;99.90
19330;DHT22;9799;48.214;16.388;2023-09-30T01:53:41;18.60;99.90
19330;DHT22;9799;48.214;16.388;2023-09-30T01:57:04;18.70;99.90
19330;DHT22;9799;48.214;16.388;2023-09-30T02:00:25;18.50;99.90
19330;DHT22;9799;48.214;16.388;2023-09-30T02:03:47;18.40;99.90
19330;DHT22;9799;48.214;16.388;2023-09-30T02:07:09;18.40;99.90
19330;DHT22;9799;48.214;16.388;2023-09-30T02:10:30;18.40;99.90
19330;DHT22;9799;48.214;16.388;2023-09-30T02:13:53;18.40;99.90
19330;DHT22;9799;48.214;16.388;2023-09-30T02:17:15;18.40;99.90
19330;DHT22;9799;48.214;16.388;2023-09-30T02:20:36;18.40;99.90
19330;DHT22;9799;48.214;16.388;2023-09-30T02:23:59;18.50;99.90
19330;DHT22;9799;48.214;16.388;2023-09-30T02:27:20;18.40;99.90
19330;DHT22;9799;48.214;16.388;2023-09-30T02:30:43;18.30;99.90
19330;DHT22;9799;48.214;16.388;2023-09-30T02:34:04;18.30;99.90
19330;DHT22;9799;48.214;16.388;2023-09-30T02:37:25;18.30;99.90
19330;DHT22;9799;48.214;16.388;2023-09-30T02:40:47;18.40;99.90
19330;DHT22;9799;48.214;16.388;2023-09-30T02:44:09;18.40;99.90
19330;DHT22;9799;48.214;16.388;2023-09-30T02:47:32;18.40;99.90
19330;DHT22;9799;48.214;16.388;2023-09-30T02:50:53;18.40;99.90
19330;DHT22;9799;48.214;16.388;2023-09-30T02:54:16;18.60;99.90
19330;DHT22;9799;48.214;16.388;2023-09-30T02:57:38;18.70;99.90
19330;DHT22;9799;48.214;16.388;2023-09-30T03:01:00;19.10;99.90
19330;DHT22;9799;48.214;16.388;2023-09-30T03:04:22;19.40;99.90
19330;DHT22;9799;48.214;16.388;2023-09-30T03:07:46;19.70;99.90
19330;DHT22;9799;48.214;16.388;2023-09-30T03:11:07;19.80;99.90
19330;DHT22;9799;48.214;16.388;2023-09-30T03:14:28;20.00;99.90
19330;DHT22;9799;48.214;16.388;2023-09-30T03:17:50;20.00;99.90
19330;DHT22;9799;48.214;16.388;2023-09-30T03:21:17;20.10;99.90
19330;DHT22;9799;48.214;16.388;2023-09-30T03:24:39;20.10;99.90
19330;DHT22;9799;48.214;16.388;2023-09-30T03:28:00;20.20;99.90
19330;DHT22;9799;48.214;16.388;2023-09-30T03:31:22;20.20;99.90
19330;DHT22;9799;48.214;16.388;2023-09-30T03:34:44;20.20;99.90
19330;DHT22;9799;48.214;16.388;2023-09-30T03:38:07;20.30;99.90
19330;DHT22;9799;48.214;16.388;2023-09-30T03:41:29;20.30;99.90
19330;DHT22;9799;48.214;16.388;2023-09-30T03:44:51;20.30;99.90
19330;DHT22;9799;48.214;16.388;2023-09-30T03:48:13;20.30;99.90
19330;DHT22;9799;48.214;16.388;2023-09-30T03:51:34;20.30;99.90
19330;DHT22;9799;48.214;16.388;2023-09-30T03:54:58;20.30;99.90
19330;DHT22;9799;48.214;16.388;2023-09-30T03:58:19;20.30;99.90
19330;DHT22;9799;48.214;16.388;2023-09-30T04:01:41;20.30;99.90
19330;DHT22;9799;48.214;16.388;2023-09-30T04:05:02;20.30;99.90
19330;DHT22;9799;48.214;16.388;2023-09-30T04:08:25;20.30;99.90
19330;DHT22;9799;48.214;16.388;2023-09-30T04:11:47;20.20;99.90
19330;DHT22;9799;48.214;16.388;2023-09-30T04:15:09;20.10;99.90
19330;DHT22;9799;48.214;16.388;2023-09-30T04:18:32;20.00;99.90
19330;DHT22;9799;48.214;16.388;2023-09-30T04:21:53;20.00;99.90
19330;DHT22;9799;48.214;16.388;2023-09-30T04:25:14;20.00;99.90
19330;DHT22;9799;48.214;16.388;2023-09-30T04:28:37;20.00;99.90
19330;DHT22;9799;48.214;16.388;2023-09-30T04:31:59;19.90;99.90
19330;DHT22;9799;48.214;16.388;2023-09-30T04:35:20;19.90;99.90
19330;DHT22;9799;48.214;16.388;2023-09-30T04:38:41;19.90;99.90
19330;DHT22;9799;48.214;16.388;2023-09-30T04:42:05;19.90;99.90
19330;DHT22;9799;48.214;16.388;2023-09-30T04:45:32;20.00;99.90
19330;DHT22;9799;48.214;16.388;2023-09-30T04:48:53;19.90;99.90
19330;DHT22;9799;48.214;16.388;2023-09-30T04:52:14;19.90;99.90
19330;DHT22;9799;48.214;16.388;2023-09-30T04:55:36;19.90;99.90
19330;DHT22;9799;48.214;16.388;2023-09-30T04:58:57;19.90;99.90
19330;DHT22;9799;48.214;16.388;2023-09-30T05:02:20;19.80;99.90
19330;DHT22;9799;48.214;16.388;2023-09-30T05:05:41;19.80;99.90
19330;DHT22;9799;48.214;16.388;2023-09-30T05:09:02;19.90;99.90
19330;DHT22;9799;48.214;16.388;2023-09-30T05:12:24;19.90;99.90
19330;DHT22;9799;48.214;16.388;2023-09-30T05:15:45;19.90;99.90
19330;DHT22;9799;48.214;16.388;2023-09-30T05:19:08;19.90;99.90
19330;DHT22;9799;48.214;16.388;2023-09-30T05:22:29;19.80;99.90
19330;DHT22;9799;48.214;16.388;2023-09-30T05:25:50;19.80;99.90
19330;DHT22;9799;48.214;16.388;2023-09-30T05:29:12;19.90;99.90
19330;DHT22;9799;48.214;16.388;2023-09-30T05:32:34;19.80;99.90
19330;DHT22;9799;48.214;16.388;2023-09-30T05:35:59;19.90;99.90
19330;DHT22;9799;48.214;16.388;2023-09-30T05:39:22;19.90;99.90
19330;DHT22;9799;48.214;16.388;2023-09-30T05:42:45;19.90;99.90
19330;DHT22;9799;48.214;16.388;2023-09-30T05:46:06;19.90;99.90
19330;DHT22;9799;48.214;16.388;2023-09-30T05:49:27;19.90;99.90
19330;DHT22;9799;48.214;16.388;2023-09-30T05:52:50;19.90;99.90
19330;DHT22;9799;48.214;16.388;2023-09-30T05:56:11;19.90;99.90
19330;DHT22;9799;48.214;16.388;2023-09-30T05:59:35;19.90;99.90
19330;DHT22;9799;48.214;16.388;2023-09-30T06:02:56;19.80;99.90
19330;DHT22;9799;48.214;16.388;2023-09-30T06:06:17;19.90;99.90
19330;DHT22;9799;48.214;16.388;2023-09-30T06:09:40;19.90;99.90
19330;DHT22;9799;48.214;16.388;2023-09-30T06:13:01;19.90;99.90
19330;DHT22;9799;48.214;16.388;2023-09-30T06:16:22;19.90;99.90
19330;DHT22;9799;48.214;16.388;2023-09-30T06:19:49;19.90;99.90
19330;DHT22;9799;48.214;16.388;2023-09-30T06:23:10;20.00;99.90
19330;DHT22;9799;48.214;16.388;2023-09-30T06:26:33;20.00;99.90
19330;DHT22;9799;48.214;16.388;2023-09-30T06:29:54;20.00;99.90
19330;DHT22;9799;48.214;16.388;2023-09-30T06:33:16;20.10;99.90
19330;DHT22;9799;48.214;16.388;2023-09-30T06:36:37;20.00;99.90
19330;DHT22;9799;48.214;16.388;2023-09-30T06:39:58;20.10;99.90
19330;DHT22;9799;48.214;16.388;2023-09-30T06:43:24;20.10;99.90
19330;DHT22;9799;48.214;16.388;2023-09-30T06:46:45;20.10;99.90
19330;DHT22;9799;48.214;16.388;2023-09-30T06:50:09;20.00;99.90
19330;DHT22;9799;48.214;16.388;2023-09-30T06:53:31;20.00;99.90
19330;DHT22;9799;48.214;16.388;2023-09-30T06:56:53;20.00;99.90
19330;DHT22;9799;48.214;16.388;2023-09-30T07:00:16;20.00;99.90
19330;DHT22;9799;48.214;16.388;2023-09-30T07:03:37;20.10;99.90
19330;DHT22;9799;48.214;16.388;2023-09-30T07:06:59;20.10;99.90
19330;DHT22;9799;48.214;16.388;2023-09-30T07:10:20;20.10;99.90
19330;DHT22;9799;48.214;16.388;2023-09-30T07:13:41;20.20;99.90
19330;DHT22;9799;48.214;16.388;2023-09-30T07:17:04;20.20;99.90
19330;DHT22;9799;48.214;16.388;2023-09-30T07:20:25;20.20;99.90
19330;DHT22;9799;48.214;16.388;2023-09-30T07:23:47;20.30;99.90
19330;DHT22;9799;48.214;16.388;2023-09-30T07:27:09;20.30;99.90
19330;DHT22;9799;48.214;16.388;2023-09-30T07:30:30;20.40;99.90
19330;DHT22;9799;48.214;16.388;2023-09-30T07:33:52;20.60;99.90
19330;DHT22;9799;48.214;16.388;2023-09-30T07:37:14;20.70;99.90
19330;DHT22;9799;48.214;16.388;2023-09-30T07:40:37;20.90;99.90
19330;DHT22;9799;48.214;16.388;2023-09-30T07:43:58;20.80;99.90
19330;DHT22;9799;48.214;16.388;2023-09-30T07:47:19;20.70;99.90
19330;DHT22;9799;48.214;16.388;2023-09-30T07:50:42;20.70;99.90
19330;DHT22;9799;48.214;16.388;2023-09-30T07:54:04;20.60;99.90
19330;DHT22;9799;48.214;16.388;2023-09-30T07:57:25;20.80;99.90
19330;DHT22;9799;48.214;16.388;2023-09-30T08:00:46;21.00;99.90
19330;DHT22;9799;48.214;16.388;2023-09-30T08:04:08;21.10;99.90
19330;DHT22;9799;48.214;16.388;2023-09-30T08:07:30;21.20;99.90
19330;DHT22;9799;48.214;16.388;2023-09-30T08:10:51;21.40;99.90
19330;DHT22;9799;48.214;16.388;2023-09-30T08:14:15;21.50;99.90
19330;DHT22;9799;48.214;16.388;2023-09-30T08:17:36;21.60;99.90
19330;DHT22;9799;48.214;16.388;2023-09-30T08:20:57;21.50;99.90
19330;DHT22;9799;48.214;16.388;2023-09-30T08:24:20;21.40;99.90
19330;DHT22;9799;48.214;16.388;2023-09-30T08:27:41;21.40;99.90
19330;DHT22;9799;48.214;16.388;2023-09-30T08:31:02;21.50;99.90
19330;DHT22;9799;48.214;16.388;2023-09-30T08:34:24;21.40;99.90
19330;DHT22;9799;48.214;16.388;2023-09-30T08:37:45;21.40;99.90
19330;DHT22;9799;48.214;16.388;2023-09-30T08:41:08;21.50;99.90
19330;DHT22;9799;48.214;16.388;2023-09-30T08:44:30;21.60;99.90
19330;DHT22;9799;48.214;16.388;2023-09-30T08:47:51;21.80;99.90
19330;DHT22;9799;48.214;16.388;2023-09-30T08:51:13;21.90;99.90
19330;DHT22;9799;48.214;16.388;2023-09-30T08:54:34;22.20;99.90
19330;DHT22;9799;48.214;16.388;2023-09-30T08:57:57;22.10;99.90
19330;DHT22;9799;48.214;16.388;2023-09-30T09:01:18;22.10;99.90
19330;DHT22;9799;48.214;16.388;2023-09-30T09:04:39;22.10;99.90
19330;DHT22;9799;48.214;16.388;2023-09-30T09:08:01;22.10;99.90
19330;DHT22;9799;48.214;16.388;2023-09-30T09:11:23;22.00;99.90
19330;DHT22;9799;48.214;16.388;2023-09-30T09:14:46;22.00;99.90
19330;DHT22;9799;48.214;16.388;2023-09-30T09:18:07;22.20;99.90
19330;DHT22;9799;48.214;16.388;2023-09-30T09:21:29;22.40;99.90
19330;DHT22;9799;48.214;16.388;2023-09-30T09:24:51;22.60;99.90
19330;DHT22;9799;48.214;16.388;2023-09-30T09:28:15;22.70;99.90
19330;DHT22;9799;48.214;16.388;2023-09-30T09:31:38;22.70;99.90
19330;DHT22;9799;48.214;16.388;2023-09-30T09:35:01;22.50;99.90
19330;DHT22;9799;48.214;16.388;2023-09-30T09:38:23;22.30;99.90
19330;DHT22;9799;48.214;16.388;2023-09-30T09:41:51;22.30;99.90
19330;DHT22;9799;48.214;16.388;2023-09-30T09:45:12;22.30;99.90
19330;DHT22;9799;48.214;16.388;2023-09-30T09:48:35;22.20;99.90
19330;DHT22;9799;48.214;16.388;2023-09-30T09:51:57;22.30;99.90
19330;DHT22;9799;48.214;16.388;2023-09-30T09:55:20;22.40;99.90
19330;DHT22;9799;48.214;16.388;2023-09-30T09:58:42;22.40;99.90
19330;DHT22;9799;48.214;16.388;2023-09-30T10:02:10;22.40;99.90
19330;DHT22;9799;48.214;16.388;2023-09-30T10:05:33;22.40;99.90
19330;DHT22;9799;48.214;16.388;2023-09-30T10:08:55;22.30;99.90
19330;DHT22;9799;48.214;16.388;2023-09-30T10:12:18;22.20;99.90
19330;DHT22;9799;48.214;16.388;2023-09-30T10:15:41;22.10;99.90
19330;DHT22;9799;48.214;16.388;2023-09-30T10:19:09;22.20;99.90
19330;DHT22;9799;48.214;16.388;2023-09-30T10:22:31;22.20;99.90
19330;DHT22;9799;48.214;16.388;2023-09-30T10:25:54;22.20;99.90
19330;DHT22;9799;48.214;16.388;2023-09-30T10:29:17;22.30;99.90
19330;DHT22;9799;48.214;16.388;2023-09-30T10:33:07;22.30;99.90
19330;DHT22;9799;48.214;16.388;2023-09-30T10:36:31;22.30;99.90
19330;DHT22;9799;48.214;16.388;2023-09-30T10:39:56;22.40;99.90
19330;DHT22;9799;48.214;16.388;2023-09-30T10:43:29;22.30;99.90
19330;DHT22;9799;48.214;16.388;2023-09-30T10:46:51;22.30;99.90
19330;DHT22;9799;48.214;16.388;2023-09-30T10:54:14;22.40;99.90
19330;DHT22;9799;48.214;16.388;2023-09-30T10:57:36;22.40;99.90
19330;DHT22;9799;48.214;16.388;2023-09-30T11:00:58;22.70;99.90
19330;DHT22;9799;48.214;16.388;2023-09-30T11:04:19;22.80;99.90
19330;DHT22;9799;48.214;16.388;2023-09-30T11:07:41;23.00;99.90
19330;DHT22;9799;48.214;16.388;2023-09-30T11:11:04;23.10;99.90
19330;DHT22;9799;48.214;16.388;2023-09-30T11:14:28;23.10;99.90
19330;DHT22;9799;48.214;16.388;2023-09-30T11:17:49;23.00;99.90
19330;DHT22;9799;48.214;16.388;2023-09-30T11:21:11;23.10;99.90
19330;DHT22;9799;48.214;16.388;2023-09-30T11:24:35;23.10;99.90
19330;DHT22;9799;48.214;16.388;2023-09-30T11:28:12;23.10;99.90
19330;DHT22;9799;48.214;16.388;2023-09-30T11:31:37;23.20;99.90
19330;DHT22;9799;48.214;16.388;2023-09-30T11:34:58;23.00;99.90
19330;DHT22;9799;48.214;16.388;2023-09-30T11:38:19;23.00;99.90
19330;DHT22;9799;48.214;16.388;2023-09-30T11:41:42;23.00;99.90
19330;DHT22;9799;48.214;16.388;2023-09-30T11:45:18;22.90;99.90
19330;DHT22;9799;48.214;16.388;2023-09-30T11:48:56;22.80;99.90
19330;DHT22;9799;48.214;16.388;2023-09-30T11:52:26;22.70;99.90
19330;DHT22;9799;48.214;16.388;2023-09-30T11:55:48;22.60;99.90
19330;DHT22;9799;48.214;16.388;2023-09-30T11:59:09;22.60;99.90
19330;DHT22;9799;48.214;16.388;2023-09-30T12:02:31;22.60;99.90
19330;DHT22;9799;48.214;16.388;2023-09-30T12:05:57;22.50;99.90
19330;DHT22;9799;48.214;16.388;2023-09-30T12:09:20;22.60;99.90
19330;DHT22;9799;48.214;16.388;2023-09-30T12:12:45;22.70;99.90
19330;DHT22;9799;48.214;16.388;2023-09-30T12:16:06;22.80;99.90
19330;DHT22;9799;48.214;16.388;2023-09-30T12:19:27;22.90;99.90
19330;DHT22;9799;48.214;16.388;2023-09-30T12:22:51;22.90;99.90
19330;DHT22;9799;48.214;16.388;2023-09-30T12:26:13;22.90;99.90
19330;DHT22;9799;48.214;16.388;2023-09-30T12:29:34;22.90;99.90
19330;DHT22;9799;48.214;16.388;2023-09-30T12:32:58;23.00;99.90
19330;DHT22;9799;48.214;16.388;2023-09-30T12:36:19;23.00;99.90
19330;DHT22;9799;48.214;16.388;2023-09-30T12:39:42;23.00;99.90
19330;DHT22;9799;48.214;16.388;2023-09-30T12:43:05;23.00;99.90
19330;DHT22;9799;48.214;16.388;2023-09-30T12:46:26;23.00;99.90
19330;DHT22;9799;48.214;16.388;2023-09-30T12:49:48;22.90;99.90
19330;DHT22;9799;48.214;16.388;2023-09-30T12:53:09;22.80;99.90
19330;DHT22;9799;48.214;16.388;2023-09-30T12:56:33;22.80;99.90
19330;DHT22;9799;48.214;16.388;2023-09-30T12:59:54;22.90;99.90
19330;DHT22;9799;48.214;16.388;2023-09-30T13:03:15;23.00;99.90
19330;DHT22;9799;48.214;16.388;2023-09-30T13:06:36;22.90;99.90
19330;DHT22;9799;48.214;16.388;2023-09-30T13:09:57;22.80;99.90
19330;DHT22;9799;48.214;16.388;2023-09-30T13:13:21;22.70;99.90
19330;DHT22;9799;48.214;16.388;2023-09-30T13:16:44;22.80;99.90
19330;DHT22;9799;48.214;16.388;2023-09-30T13:20:06;22.80;99.90
19330;DHT22;9799;48.214;16.388;2023-09-30T13:23:29;22.80;99.90
19330;DHT22;9799;48.214;16.388;2023-09-30T13:26:50;22.80;99.90
19330;DHT22;9799;48.214;16.388;2023-09-30T13:30:13;22.80;99.90
19330;DHT22;9799;48.214;16.388;2023-09-30T13:33:35;22.90;99.90
19330;DHT22;9799;48.214;16.388;2023-09-30T13:36:56;22.80;99.90
19330;DHT22;9799;48.214;16.388;2023-09-30T13:40:17;22.70;99.90
19330;DHT22;9799;48.214;16.388;2023-09-30T13:43:38;22.70;99.90
19330;DHT22;9799;48.214;16.388;2023-09-30T13:47:02;22.60;99.90
19330;DHT22;9799;48.214;16.388;2023-09-30T13:50:23;22.50;99.90
19330;DHT22;9799;48.214;16.388;2023-09-30T13:53:45;22.40;99.90
19330;DHT22;9799;48.214;16.388;2023-09-30T13:57:06;22.50;99.90
19330;DHT22;9799;48.214;16.388;2023-09-30T14:00:27;22.50;99.90
19330;DHT22;9799;48.214;16.388;2023-09-30T14:03:50;22.50;99.90
19330;DHT22;9799;48.214;16.388;2023-09-30T14:07:15;22.50;99.90
19330;DHT22;9799;48.214;16.388;2023-09-30T14:10:38;22.50;99.90
19330;DHT22;9799;48.214;16.388;2023-09-30T14:13:59;22.50;99.90
19330;DHT22;9799;48.214;16.388;2023-09-30T14:17:20;22.30;99.90
19330;DHT22;9799;48.214;16.388;2023-09-30T14:20:43;22.30;99.90
19330;DHT22;9799;48.214;16.388;2023-09-30T14:24:05;22.40;99.90
19330;DHT22;9799;48.214;16.388;2023-09-30T14:27:26;22.40;99.90
19330;DHT22;9799;48.214;16.388;2023-09-30T14:30:48;22.50;99.90
19330;DHT22;9799;48.214;16.388;2023-09-30T14:34:09;22.50;99.90
19330;DHT22;9799;48.214;16.388;2023-09-30T14:37:32;22.50;99.90
19330;DHT22;9799;48.214;16.388;2023-09-30T14:40:53;22.60;99.90
19330;DHT22;9799;48.214;16.388;2023-09-30T14:44:15;22.60;99.90
19330;DHT22;9799;48.214;16.388;2023-09-30T14:47:36;22.60;99.90
19330;DHT22;9799;48.214;16.388;2023-09-30T14:50:58;22.60;99.90
19330;DHT22;9799;48.214;16.388;2023-09-30T14:54:20;22.60;99.90
19330;DHT22;9799;48.214;16.388;2023-09-30T14:57:42;22.60;99.90
19330;DHT22;9799;48.214;16.388;2023-09-30T15:01:08;22.50;99.90
19330;DHT22;9799;48.214;16.388;2023-09-30T15:04:29;22.50;99.90
19330;DHT22;9799;48.214;16.388;2023-09-30T15:07:51;22.50;99.90
19330;DHT22;9799;48.214;16.388;2023-09-30T15:11:14;22.40;99.90
19330;DHT22;9799;48.214;16.388;2023-09-30T15:14:35;22.40;99.90
19330;DHT22;9799;48.214;16.388;2023-09-30T15:17:57;22.30;99.90
19330;DHT22;9799;48.214;16.388;2023-09-30T15:21:18;22.30;99.90
19330;DHT22;9799;48.214;16.388;2023-09-30T15:24:40;22.30;99.90
19330;DHT22;9799;48.214;16.388;2023-09-30T15:28:02;22.30;99.90
19330;DHT22;9799;48.214;16.388;2023-09-30T15:31:27;22.20;99.90
19330;DHT22;9799;48.214;16.388;2023-09-30T15:34:49;22.20;99.90
19330;DHT22;9799;48.214;16.388;2023-09-30T15:38:10;22.10;99.90
19330;DHT22;9799;48.214;16.388;2023-09-30T15:41:31;22.00;99.90
19330;DHT22;9799;48.214;16.388;2023-09-30T15:44:55;22.00;99.90
19330;DHT22;9799;48.214;16.388;2023-09-30T15:48:17;22.00;99.90
19330;DHT22;9799;48.214;16.388;2023-09-30T15:51:39;22.00;99.90
19330;DHT22;9799;48.214;16.388;2023-09-30T15:55:00;21.90;99.90
19330;DHT22;9799;48.214;16.388;2023-09-30T15:58:22;21.70;99.90
19330;DHT22;9799;48.214;16.388;2023-09-30T16:01:45;21.70;99.90
19330;DHT22;9799;48.214;16.388;2023-09-30T16:05:07;21.70;99.90
19330;DHT22;9799;48.214;16.388;2023-09-30T16:08:28;21.60;99.90
19330;DHT22;9799;48.214;16.388;2023-09-30T16:11:49;21.50;99.90
19330;DHT22;9799;48.214;16.388;2023-09-30T16:15:10;21.60;99.90
19330;DHT22;9799;48.214;16.388;2023-09-30T16:18:34;21.50;99.90
19330;DHT22;9799;48.214;16.388;2023-09-30T16:21:55;21.50;99.90
19330;DHT22;9799;48.214;16.388;2023-09-30T16:25:16;21.50;99.90
19330;DHT22;9799;48.214;16.388;2023-09-30T16:28:38;21.50;99.90
19330;DHT22;9799;48.214;16.388;2023-09-30T16:31:59;21.40;99.90
19330;DHT22;9799;48.214;16.388;2023-09-30T16:35:22;21.30;99.90
19330;DHT22;9799;48.214;16.388;2023-09-30T16:38:43;21.20;99.90
19330;DHT22;9799;48.214;16.388;2023-09-30T16:42:05;21.20;99.90
19330;DHT22;9799;48.214;16.388;2023-09-30T16:45:26;21.10;99.90
19330;DHT22;9799;48.214;16.388;2023-09-30T16:48:48;21.00;99.90
19330;DHT22;9799;48.214;16.388;2023-09-30T16:52:11;20.90;99.90
19330;DHT22;9799;48.214;16.388;2023-09-30T16:55:34;20.90;99.90
19330;DHT22;9799;48.214;16.388;2023-09-30T16:58:55;20.90;99.90
19330;DHT22;9799;48.214;16.388;2023-09-30T17:02:17;20.80;99.90
19330;DHT22;9799;48.214;16.388;2023-09-30T17:05:41;20.80;99.90
19330;DHT22;9799;48.214;16.388;2023-09-30T17:09:05;20.80;99.90
19330;DHT22;9799;48.214;16.388;2023-09-30T17:12:26;20.80;99.90
19330;DHT22;9799;48.214;16.388;2023-09-30T17:15:48;20.80;99.90
19330;DHT22;9799;48.214;16.388;2023-09-30T17:19:09;20.80;99.90
19330;DHT22;9799;48.214;16.388;2023-09-30T17:22:30;20.90;99.90
19330;DHT22;9799;48.214;16.388;2023-09-30T17:25:58;20.70;99.90
19330;DHT22;9799;48.214;16.388;2023-09-30T17:29:20;20.70;99.90
19330;DHT22;9799;48.214;16.388;2023-09-30T17:32:41;20.70;99.90
19330;DHT22;9799;48.214;16.388;2023-09-30T17:36:04;20.60;99.90
19330;DHT22;9799;48.214;16.388;2023-09-30T17:39:26;20.60;99.90
19330;DHT22;9799;48.214;16.388;2023-09-30T17:42:49;20.60;99.90
19330;DHT22;9799;48.214;16.388;2023-09-30T17:46:14;20.60;99.90
19330;DHT22;9799;48.214;16.388;2023-09-30T17:49:38;20.50;99.90
19330;DHT22;9799;48.214;16.388;2023-09-30T17:52:59;20.50;99.90
19330;DHT22;9799;48.214;16.388;2023-09-30T17:56:21;20.50;99.90
19330;DHT22;9799;48.214;16.388;2023-09-30T17:59:47;20.50;99.90
19330;DHT22;9799;48.214;16.388;2023-09-30T18:03:10;20.40;99.90
19330;DHT22;9799;48.214;16.388;2023-09-30T18:06:32;20.30;99.90
19330;DHT22;9799;48.214;16.388;2023-09-30T18:09:55;20.30;99.90
19330;DHT22;9799;48.214;16.388;2023-09-30T18:13:18;20.40;99.90
19330;DHT22;9799;48.214;16.388;2023-09-30T18:16:42;20.40;99.90
19330;DHT22;9799;48.214;16.388;2023-09-30T18:20:04;20.40;99.90
19330;DHT22;9799;48.214;16.388;2023-09-30T18:23:27;20.30;99.90
19330;DHT22;9799;48.214;16.388;2023-09-30T18:26:48;20.30;99.90
19330;DHT22;9799;48.214;16.388;2023-09-30T18:30:11;20.20;99.90
19330;DHT22;9799;48.214;16.388;2023-09-30T18:33:35;20.10;99.90
19330;DHT22;9799;48.214;16.388;2023-09-30T18:36:57;20.20;99.90
19330;DHT22;9799;48.214;16.388;2023-09-30T18:40:19;20.20;99.90
19330;DHT22;9799;48.214;16.388;2023-09-30T18:43:41;20.20;99.90
19330;DHT22;9799;48.214;16.388;2023-09-30T18:47:04;20.20;99.90
19330;DHT22;9799;48.214;16.388;2023-09-30T18:50:29;20.10;99.90
19330;DHT22;9799;48.214;16.388;2023-09-30T18:53:52;20.00;99.90
19330;DHT22;9799;48.214;16.388;2023-09-30T18:57:14;20.10;99.90
19330;DHT22;9799;48.214;16.388;2023-09-30T19:00:37;20.00;99.90
19330;DHT22;9799;48.214;16.388;2023-09-30T19:03:59;19.80;99.90
19330;DHT22;9799;48.214;16.388;2023-09-30T19:07:24;19.90;99.90
19330;DHT22;9799;48.214;16.388;2023-09-30T19:10:47;19.90;99.90
19330;DHT22;9799;48.214;16.388;2023-09-30T19:14:08;19.90;99.90
19330;DHT22;9799;48.214;16.388;2023-09-30T19:17:34;19.80;99.90
19330;DHT22;9799;48.214;16.388;2023-09-30T19:20:56;19.80;99.90
19330;DHT22;9799;48.214;16.388;2023-09-30T19:24:19;19.80;99.90
19330;DHT22;9799;48.214;16.388;2023-09-30T19:27:42;19.70;99.90
19330;DHT22;9799;48.214;16.388;2023-09-30T19:31:03;19.70;99.90
19330;DHT22;9799;48.214;16.388;2023-09-30T19:34:25;19.80;99.90
19330;DHT22;9799;48.214;16.388;2023-09-30T19:37:49;19.70;99.90
19330;DHT22;9799;48.214;16.388;2023-09-30T19:41:15;19.70;99.90
19330;DHT22;9799;48.214;16.388;2023-09-30T19:44:38;19.70;99.90
19330;DHT22;9799;48.214;16.388;2023-09-30T19:48:00;19.60;99.90
19330;DHT22;9799;48.214;16.388;2023-09-30T19:51:22;19.50;99.90
19330;DHT22;9799;48.214;16.388;2023-09-30T19:54:44;19.50;99.90
19330;DHT22;9799;48.214;16.388;2023-09-30T19:58:07;19.50;99.90
19330;DHT22;9799;48.214;16.388;2023-09-30T20:01:30;19.50;99.90
19330;DHT22;9799;48.214;16.388;2023-09-30T20:04:51;19.40;99.90
19330;DHT22;9799;48.214;16.388;2023-09-30T20:08:12;19.20;99.90
19330;DHT22;9799;48.214;16.388;2023-09-30T20:11:34;19.20;99.90
19330;DHT22;9799;48.214;16.388;2023-09-30T20:14:57;19.10;99.90
19330;DHT22;9799;48.214;16.388;2023-09-30T20:18:18;19.10;99.90
19330;DHT22;9799;48.214;16.388;2023-09-30T20:21:39;19.10;99.90
19330;DHT22;9799;48.214;16.388;2023-09-30T20:25:01;19.00;99.90
19330;DHT22;9799;48.214;16.388;2023-09-30T20:28:23;19.00;99.90
19330;DHT22;9799;48.214;16.388;2023-09-30T20:31:46;18.90;99.90
19330;DHT22;9799;48.214;16.388;2023-09-30T20:35:08;18.90;99.90
19330;DHT22;9799;48.214;16.388;2023-09-30T20:38:29;18.70;99.90
19330;DHT22;9799;48.214;16.388;2023-09-30T20:41:50;18.70;99.90
19330;DHT22;9799;48.214;16.388;2023-09-30T20:45:12;18.70;99.90
19330;DHT22;9799;48.214;16.388;2023-09-30T20:48:35;18.70;99.90
19330;DHT22;9799;48.214;16.388;2023-09-30T20:51:56;18.70;99.90
19330;DHT22;9799;48.214;16.388;2023-09-30T20:55:18;18.60;99.90
19330;DHT22;9799;48.214;16.388;2023-09-30T20:58:39;18.60;99.90
19330;DHT22;9799;48.214;16.388;2023-09-30T21:02:01;18.70;99.90
19330;DHT22;9799;48.214;16.388;2023-09-30T21:05:24;18.60;99.90
19330;DHT22;9799;48.214;16.388;2023-09-30T21:08:45;18.50;99.90
19330;DHT22;9799;48.214;16.388;2023-09-30T21:12:10;18.60;99.90
19330;DHT22;9799;48.214;16.388;2023-09-30T21:15:33;18.60;99.90
19330;DHT22;9799;48.214;16.388;2023-09-30T21:18:54;18.50;99.90
19330;DHT22;9799;48.214;16.388;2023-09-30T21:22:17;18.50;99.90